createdAt,value
2023-01-09T00:01:04.553Z,54.10
2023-01-09T00:03:33.602Z,54.20
2023-01-09T00:06:01.766Z,54.00
2023-01-09T00:08:29.541Z,54.30
2023-01-09T00:10:57.690Z,54.20
2023-01-09T00:13:25.372Z,54.30
2023-01-09T00:15:53.469Z,54.20
2023-01-09T00:18:21.134Z,54.10
2023-01-09T00:20:50.499Z,54.10
2023-01-09T00:23:18.332Z,54.20
2023-01-09T00:25:46.194Z,54.20
2023-01-09T00:28:14.058Z,54.40
2023-01-09T00:30:41.779Z,54.30
2023-01-09T00:33:10.403Z,54.30
2023-01-09T00:35:38.106Z,54.40
2023-01-09T00:38:07.145Z,54.40
2023-01-09T00:40:35.454Z,54.40
2023-01-09T00:43:03.415Z,54.40
2023-01-09T00:45:31.359Z,54.40
2023-01-09T00:48:02.450Z,54.40
2023-01-09T00:50:31.871Z,54.40
2023-01-09T00:53:02.093Z,54.40
2023-01-09T00:55:31.192Z,54.30
2023-01-09T00:57:59.088Z,54.40
2023-01-09T01:00:26.950Z,54.30
2023-01-09T01:02:54.718Z,54.30
2023-01-09T01:05:40.000Z,54.30
2023-01-09T01:08:12.304Z,54.40
2023-01-09T01:10:41.430Z,54.40
2023-01-09T01:13:09.717Z,54.40
2023-01-09T01:15:39.509Z,54.50
2023-01-09T01:18:07.368Z,54.50
2023-01-09T01:20:35.092Z,54.60
2023-01-09T01:23:02.778Z,54.70
2023-01-09T01:25:31.153Z,54.80
2023-01-09T01:28:00.531Z,54.80
2023-01-09T01:30:28.938Z,54.80
2023-01-09T01:32:56.725Z,54.70
2023-01-09T01:35:27.211Z,54.80
2023-01-09T01:37:55.130Z,54.90
2023-01-09T01:40:23.048Z,54.90
2023-01-09T01:42:53.351Z,55.00
2023-01-09T01:45:22.910Z,55.10
2023-01-09T01:47:55.724Z,55.10
2023-01-09T01:50:28.999Z,55.20
2023-01-09T01:53:01.896Z,55.10
2023-01-09T01:55:30.000Z,55.00
2023-01-09T01:57:59.873Z,55.00
2023-01-09T02:00:31.612Z,55.30
2023-01-09T02:02:59.545Z,55.30
2023-01-09T02:05:27.233Z,55.30
2023-01-09T02:07:54.930Z,55.40
2023-01-09T02:10:23.471Z,55.30
2023-01-09T02:12:51.603Z,55.20
2023-01-09T02:15:19.342Z,55.10
2023-01-09T02:18:15.599Z,55.30
2023-01-09T02:20:49.868Z,55.80
2023-01-09T02:23:51.500Z,55.30
2023-01-09T02:26:39.953Z,55.40
2023-01-09T02:29:50.650Z,55.40
2023-01-09T02:32:25.974Z,55.40
2023-01-09T02:34:58.496Z,55.70
2023-01-09T02:37:30.519Z,55.60
2023-01-09T02:40:02.559Z,55.50
2023-01-09T02:42:30.223Z,55.70
2023-01-09T02:44:58.559Z,55.70
2023-01-09T02:47:39.336Z,55.70
2023-01-09T02:50:09.623Z,55.80
2023-01-09T02:52:42.273Z,55.80
2023-01-09T02:55:12.065Z,55.90
2023-01-09T02:57:47.553Z,55.90
2023-01-09T03:00:21.492Z,55.80
2023-01-09T03:02:51.582Z,56.00
2023-01-09T03:05:23.039Z,55.80
2023-01-09T03:07:54.608Z,55.80
2023-01-09T03:10:23.478Z,56.00
2023-01-09T03:12:52.594Z,55.90
2023-01-09T03:15:20.823Z,56.10
2023-01-09T03:17:49.885Z,56.60
2023-01-09T03:20:20.037Z,56.10
2023-01-09T03:22:54.455Z,56.10
2023-01-09T03:25:22.176Z,56.20
2023-01-09T03:27:50.926Z,56.30
2023-01-09T03:30:19.341Z,56.20
2023-01-09T03:32:47.369Z,56.30
2023-01-09T03:35:16.503Z,56.30
2023-01-09T03:37:44.623Z,56.30
2023-01-09T03:40:12.549Z,56.40
2023-01-09T03:42:40.243Z,56.50
2023-01-09T03:45:08.536Z,56.60
2023-01-09T03:47:36.668Z,56.50
2023-01-09T03:50:04.663Z,56.50
2023-01-09T03:52:34.529Z,56.70
2023-01-09T03:55:02.232Z,56.60
2023-01-09T03:57:29.910Z,56.70
2023-01-09T03:59:58.126Z,56.60
2023-01-09T04:02:25.806Z,56.60
2023-01-09T04:04:53.871Z,56.70
2023-01-09T04:07:21.581Z,56.70
2023-01-09T04:09:50.620Z,56.80
2023-01-09T04:12:18.319Z,56.80
2023-01-09T04:14:46.552Z,56.80
2023-01-09T04:17:16.422Z,56.90
2023-01-09T04:19:44.303Z,57.00
2023-01-09T04:22:11.994Z,57.00
2023-01-09T04:24:39.674Z,56.90
2023-01-09T04:27:09.095Z,56.90
2023-01-09T04:29:36.821Z,57.00
2023-01-09T04:32:05.039Z,57.10
2023-01-09T04:34:32.714Z,57.00
2023-01-09T04:37:00.850Z,57.00
2023-01-09T04:39:28.552Z,57.10
2023-01-09T04:41:56.517Z,57.00
2023-01-09T04:44:26.891Z,57.10
2023-01-09T04:46:54.886Z,57.00
2023-01-09T04:49:23.043Z,57.00
2023-01-09T04:51:50.965Z,57.00
2023-01-09T04:54:19.139Z,57.10
2023-01-09T04:56:46.850Z,57.00
2023-01-09T04:59:14.903Z,57.00
2023-01-09T05:01:44.075Z,57.10
2023-01-09T05:04:13.480Z,57.20
2023-01-09T05:06:41.156Z,57.20
2023-01-09T05:09:09.271Z,57.20
2023-01-09T05:11:37.180Z,57.20
2023-01-09T05:14:05.011Z,57.30
2023-01-09T05:16:33.343Z,57.30
2023-01-09T05:19:02.639Z,57.30
2023-01-09T05:21:30.621Z,57.40
2023-01-09T05:23:58.500Z,57.30
2023-01-09T05:26:26.278Z,57.30
2023-01-09T05:28:54.290Z,57.40
2023-01-09T05:31:22.554Z,57.30
2023-01-09T05:33:50.393Z,57.30
2023-01-09T05:36:19.471Z,57.30
2023-01-09T05:38:47.132Z,57.30
2023-01-09T05:41:15.452Z,57.30
2023-01-09T05:43:43.157Z,57.30
2023-01-09T05:46:10.923Z,57.40
2023-01-09T05:48:38.802Z,57.50
2023-01-09T05:51:06.750Z,57.40
2023-01-09T05:53:35.793Z,57.40
2023-01-09T05:56:03.784Z,57.40
2023-01-09T05:58:31.841Z,57.50
2023-01-09T06:00:59.779Z,57.50
2023-01-09T06:03:28.326Z,57.40
2023-01-09T06:05:56.203Z,57.60
2023-01-09T06:08:25.419Z,57.40
2023-01-09T06:10:54.426Z,57.40
2023-01-09T06:13:22.084Z,57.40
2023-01-09T06:15:49.840Z,57.50
2023-01-09T06:18:17.750Z,57.60
2023-01-09T06:20:46.287Z,57.60
2023-01-09T06:23:14.220Z,57.50
2023-01-09T06:25:42.611Z,57.40
2023-01-09T06:28:12.019Z,57.50
2023-01-09T06:30:40.353Z,57.30
2023-01-09T06:33:08.019Z,57.60
2023-01-09T06:35:35.697Z,57.40
2023-01-09T06:38:04.061Z,57.30
2023-01-09T06:40:31.728Z,57.40
2023-01-09T06:42:59.836Z,57.70
2023-01-09T06:45:28.874Z,57.40
2023-01-09T06:47:56.917Z,57.40
2023-01-09T06:50:24.624Z,57.40
2023-01-09T06:52:52.691Z,57.40
2023-01-09T06:55:20.392Z,57.40
2023-01-09T06:57:48.683Z,57.50
2023-01-09T07:00:17.404Z,57.50
2023-01-09T07:02:46.428Z,57.50
2023-01-09T07:05:14.181Z,57.50
2023-01-09T07:07:42.101Z,57.60
2023-01-09T07:10:11.763Z,57.40
2023-01-09T07:12:39.629Z,57.50
2023-01-09T07:15:09.062Z,57.50
2023-01-09T07:17:36.755Z,57.40
2023-01-09T07:20:07.570Z,57.60
2023-01-09T07:22:35.284Z,57.60
2023-01-09T07:25:03.468Z,57.60
2023-01-09T07:27:31.142Z,58.00
2023-01-09T07:29:58.845Z,57.60
2023-01-09T07:32:26.553Z,57.50
2023-01-09T07:34:54.229Z,57.60
2023-01-09T07:37:23.273Z,57.80
2023-01-09T07:39:50.930Z,57.80
2023-01-09T07:42:18.641Z,57.80
2023-01-09T07:44:46.500Z,57.80
2023-01-09T07:47:14.280Z,57.90
2023-01-09T07:49:42.168Z,57.80
2023-01-09T07:52:10.353Z,57.90
2023-01-09T07:54:39.387Z,57.90
2023-01-09T07:57:07.451Z,58.00
2023-01-09T07:59:35.133Z,58.00
2023-01-09T08:02:05.554Z,57.90
2023-01-09T08:04:33.465Z,57.90
2023-01-09T08:07:03.092Z,58.60
2023-01-09T08:09:31.230Z,58.00
2023-01-09T08:12:00.253Z,58.00
2023-01-09T08:14:27.932Z,58.60
2023-01-09T08:16:55.639Z,58.00
2023-01-09T08:19:24.390Z,58.60
2023-01-09T08:21:52.091Z,58.10
2023-01-09T08:24:20.260Z,57.90
2023-01-09T08:26:47.974Z,58.00
2023-01-09T08:29:17.468Z,58.10
2023-01-09T08:31:45.200Z,58.10
2023-01-09T08:34:12.877Z,58.10
2023-01-09T08:36:40.936Z,58.20
2023-01-09T08:39:09.716Z,58.10
2023-01-09T08:41:55.552Z,58.10
2023-01-09T08:44:42.358Z,58.20
2023-01-09T08:47:10.451Z,58.10
2023-01-09T08:49:39.583Z,58.30
2023-01-09T08:52:07.925Z,58.20
2023-01-09T08:54:36.759Z,58.20
2023-01-09T08:57:04.820Z,58.00
2023-01-09T08:59:33.863Z,58.00
2023-01-09T09:02:02.490Z,58.10
2023-01-09T09:04:30.497Z,58.20
2023-01-09T09:06:58.919Z,58.10
2023-01-09T09:09:26.873Z,57.80
2023-01-09T09:11:54.811Z,57.70
2023-01-09T09:14:40.419Z,57.80
2023-01-09T09:17:09.441Z,57.70
2023-01-09T09:19:37.441Z,57.80
2023-01-09T09:22:05.125Z,57.70
2023-01-09T09:24:32.822Z,57.70
2023-01-09T09:27:00.523Z,57.80
2023-01-09T09:29:28.584Z,58.00
2023-01-09T09:31:56.245Z,57.90
2023-01-09T09:34:25.739Z,58.00
2023-01-09T09:36:53.837Z,57.80
2023-01-09T09:39:22.059Z,58.00
2023-01-09T09:42:48.126Z,57.90
2023-01-09T09:45:21.871Z,58.00
2023-01-09T09:47:53.532Z,58.10
2023-01-09T09:50:32.896Z,58.00
2023-01-09T09:53:02.526Z,58.20
2023-01-09T09:55:32.354Z,58.20
2023-01-09T09:58:01.247Z,58.60
2023-01-09T10:00:29.356Z,58.20
2023-01-09T10:02:59.324Z,58.20
2023-01-09T10:05:29.928Z,58.10
2023-01-09T10:08:05.839Z,58.00
2023-01-09T10:10:42.000Z,57.90
2023-01-09T10:13:23.919Z,58.00
2023-01-09T10:15:56.357Z,58.10
2023-01-09T10:18:26.743Z,58.00
2023-01-09T10:20:58.573Z,58.00
2023-01-09T10:23:46.067Z,58.20
2023-01-09T10:26:18.284Z,58.20
2023-01-09T10:28:54.521Z,57.90
2023-01-09T10:31:25.407Z,57.80
2023-01-09T10:33:55.866Z,57.60
2023-01-09T10:36:35.411Z,57.60
2023-01-09T10:39:04.760Z,57.50
2023-01-09T10:41:35.684Z,57.50
2023-01-09T10:44:05.233Z,57.60
2023-01-09T10:46:37.556Z,57.70
2023-01-09T10:49:10.108Z,57.50
2023-01-09T10:51:42.801Z,57.50
2023-01-09T10:54:13.235Z,57.50
2023-01-09T10:56:42.500Z,57.50
2023-01-09T10:59:10.178Z,57.60
2023-01-09T11:01:39.849Z,57.60
2023-01-09T11:04:12.403Z,57.60
2023-01-09T11:06:45.590Z,57.60
2023-01-09T11:09:15.337Z,57.70
2023-01-09T11:11:44.399Z,57.90
2023-01-09T11:14:16.352Z,57.90
2023-01-09T11:16:52.767Z,57.70
2023-01-09T11:19:21.073Z,57.90
2023-01-09T11:21:50.726Z,57.90
2023-01-09T11:24:29.568Z,58.60
2023-01-09T11:27:23.410Z,58.00
2023-01-09T11:30:26.421Z,57.80
2023-01-09T11:32:54.698Z,57.70
2023-01-09T11:35:26.552Z,58.00
2023-01-09T11:38:17.320Z,57.80
2023-01-09T11:40:47.445Z,57.60
2023-01-09T11:43:17.754Z,57.70
2023-01-09T11:46:00.120Z,57.70
2023-01-09T11:48:31.201Z,57.50
2023-01-09T11:50:59.901Z,57.40
2023-01-09T11:53:29.394Z,57.40
2023-01-09T11:56:01.089Z,57.30
2023-01-09T11:58:31.628Z,57.40
2023-01-09T12:01:05.027Z,57.30
2023-01-09T12:03:42.950Z,57.20
2023-01-09T12:06:14.342Z,57.30
2023-01-09T12:08:48.783Z,57.40
2023-01-09T12:11:29.165Z,57.30
2023-01-09T12:14:08.791Z,57.50
2023-01-09T12:16:38.621Z,57.40
2023-01-09T12:19:19.846Z,57.50
2023-01-09T12:21:50.036Z,57.60
2023-01-09T12:24:42.538Z,57.70
2023-01-09T12:27:19.086Z,57.60
2023-01-09T12:29:54.296Z,57.70
2023-01-09T12:32:44.454Z,57.80
2023-01-09T12:35:18.997Z,57.90
2023-01-09T12:38:21.794Z,58.00
2023-01-09T12:41:25.309Z,58.10
2023-01-09T12:44:05.378Z,58.10
2023-01-09T12:46:34.759Z,58.10
2023-01-09T12:49:16.056Z,58.20
2023-01-09T12:51:45.518Z,58.30
2023-01-09T12:54:16.332Z,58.20
2023-01-09T12:56:46.132Z,58.30
2023-01-09T12:59:22.765Z,58.30
2023-01-09T13:01:50.838Z,58.20
2023-01-09T13:04:21.130Z,58.30
2023-01-09T13:06:51.489Z,58.30
2023-01-09T13:09:23.858Z,58.30
2023-01-09T13:11:55.621Z,58.20
2023-01-09T13:14:29.034Z,58.20
2023-01-09T13:16:57.216Z,58.20
2023-01-09T13:19:26.878Z,58.20
2023-01-09T13:21:54.847Z,58.10
2023-01-09T13:24:25.736Z,58.10
2023-01-09T13:26:55.123Z,58.10
2023-01-09T13:29:29.155Z,58.10
2023-01-09T13:32:09.860Z,58.00
2023-01-09T13:34:38.610Z,58.00
2023-01-09T13:37:06.878Z,58.10
2023-01-09T13:39:35.833Z,58.00
2023-01-09T13:42:22.287Z,58.00
2023-01-09T13:44:53.046Z,58.00
2023-01-09T13:47:22.567Z,57.90
2023-01-09T13:50:07.007Z,58.10
2023-01-09T13:52:37.607Z,58.00
2023-01-09T13:55:25.182Z,58.00
2023-01-09T13:58:27.332Z,58.00
2023-01-09T14:00:59.643Z,58.00
2023-01-09T14:03:31.586Z,57.90
2023-01-09T14:06:18.705Z,58.10
2023-01-09T14:08:47.630Z,58.00
2023-01-09T14:11:22.871Z,58.10
2023-01-09T14:14:07.348Z,58.20
2023-01-09T14:16:36.724Z,58.20
2023-01-09T14:19:07.151Z,58.20
2023-01-09T14:21:46.291Z,58.10
2023-01-09T14:24:21.376Z,58.00
2023-01-09T14:26:52.262Z,58.10
2023-01-09T14:29:41.574Z,58.10
2023-01-09T14:32:45.555Z,58.60
2023-01-09T14:35:24.117Z,58.10
2023-01-09T14:38:06.911Z,58.10
2023-01-09T14:40:34.866Z,57.90
2023-01-09T14:43:15.780Z,58.60
2023-01-09T14:45:44.839Z,58.10
2023-01-09T14:48:14.892Z,58.00
2023-01-09T14:50:45.631Z,58.00
2023-01-09T14:53:15.026Z,58.10
2023-01-09T14:55:50.586Z,57.90
2023-01-09T14:58:21.736Z,58.00
2023-01-09T15:00:52.062Z,57.90
2023-01-09T15:03:22.010Z,58.00
2023-01-09T15:05:49.877Z,58.00
2023-01-09T15:08:19.697Z,58.10
2023-01-09T15:10:47.998Z,58.20
2023-01-09T15:13:19.152Z,58.00
2023-01-09T15:15:47.737Z,58.10
2023-01-09T15:18:21.949Z,58.10
2023-01-09T15:20:53.245Z,57.90
2023-01-09T15:23:23.505Z,58.10
2023-01-09T15:25:51.432Z,58.10
2023-01-09T15:28:25.883Z,58.00
2023-01-09T15:30:59.529Z,58.00
2023-01-09T15:33:29.493Z,58.10
2023-01-09T15:36:02.539Z,58.00
2023-01-09T15:38:32.989Z,58.10
2023-01-09T15:41:01.925Z,58.20
2023-01-09T15:43:29.305Z,58.10
2023-01-09T15:45:57.278Z,58.00
2023-01-09T15:48:26.521Z,58.00
2023-01-09T15:50:58.123Z,58.00
2023-01-09T15:53:26.983Z,58.00
2023-01-09T15:56:19.473Z,58.10
2023-01-09T15:58:47.900Z,58.00
2023-01-09T16:01:26.462Z,58.00
2023-01-09T16:03:54.458Z,58.20
2023-01-09T16:06:26.055Z,58.10
2023-01-09T16:08:56.083Z,58.30
2023-01-09T16:11:25.018Z,58.30
2023-01-09T16:13:52.726Z,58.20
2023-01-09T16:16:26.255Z,58.30
2023-01-09T16:18:54.531Z,58.30
2023-01-09T16:21:32.068Z,58.40
2023-01-09T16:24:00.774Z,58.50
2023-01-09T16:26:29.863Z,58.50
2023-01-09T16:28:57.742Z,58.40
2023-01-09T16:31:26.933Z,58.50
2023-01-09T16:33:58.509Z,58.50
2023-01-09T16:36:28.400Z,58.50
2023-01-09T16:38:57.587Z,58.60
2023-01-09T16:41:42.725Z,58.50
2023-01-09T16:44:10.733Z,58.70
2023-01-09T16:46:40.035Z,58.70
2023-01-09T16:49:18.503Z,58.60
2023-01-09T16:51:47.940Z,58.80
2023-01-09T16:54:15.729Z,58.60
2023-01-09T16:56:43.912Z,58.80
2023-01-09T16:59:13.882Z,58.80
2023-01-09T17:01:43.289Z,58.80
2023-01-09T17:04:12.160Z,58.80
2023-01-09T17:06:40.310Z,58.80
2023-01-09T17:09:10.681Z,58.80
2023-01-09T17:11:39.485Z,58.90
2023-01-09T17:14:07.455Z,58.90
2023-01-09T17:16:35.836Z,59.00
2023-01-09T17:19:03.973Z,58.90
2023-01-09T17:21:32.001Z,59.00
2023-01-09T17:24:17.888Z,59.10
2023-01-09T17:27:05.713Z,59.10
2023-01-09T17:29:33.665Z,59.10
2023-01-09T17:32:01.618Z,59.20
2023-01-09T17:34:29.456Z,59.20
2023-01-09T17:36:57.320Z,59.20
2023-01-09T17:39:25.361Z,59.20
2023-01-09T17:41:54.669Z,59.30
2023-01-09T17:44:22.565Z,59.30
2023-01-09T17:46:50.463Z,59.30
2023-01-09T17:49:19.676Z,59.30
2023-01-09T17:51:47.846Z,59.30
2023-01-09T17:54:15.879Z,59.40
2023-01-09T17:56:45.599Z,59.50
2023-01-09T17:59:15.164Z,59.40
2023-01-09T18:01:43.347Z,59.50
2023-01-09T18:04:11.555Z,59.50
2023-01-09T18:06:39.691Z,59.60
2023-01-09T18:09:07.707Z,59.60
2023-01-09T18:11:35.696Z,59.60
2023-01-09T18:14:03.564Z,59.50
2023-01-09T18:16:33.076Z,59.60
2023-01-09T18:19:02.066Z,59.70
2023-01-09T18:21:30.068Z,59.70
2023-01-09T18:23:57.956Z,59.70
2023-01-09T18:26:25.989Z,59.70
2023-01-09T18:28:55.911Z,59.60
2023-01-09T18:31:24.692Z,59.60
2023-01-09T18:33:54.675Z,59.80
2023-01-09T18:36:23.652Z,59.90
2023-01-09T18:38:53.316Z,59.90
2023-01-09T18:41:21.860Z,59.80
2023-01-09T18:43:50.621Z,59.80
2023-01-09T18:46:20.645Z,59.80
2023-01-09T18:48:53.838Z,59.80
2023-01-09T18:51:21.970Z,60.00
2023-01-09T18:53:49.913Z,60.00
2023-01-09T18:56:19.141Z,60.10
2023-01-09T18:58:46.997Z,60.00
2023-01-09T19:01:15.311Z,60.00
2023-01-09T19:03:43.381Z,60.10
2023-01-09T19:06:12.892Z,60.10
2023-01-09T19:08:40.810Z,60.10
2023-01-09T19:11:08.832Z,60.20
2023-01-09T19:13:37.918Z,60.10
2023-01-09T19:16:07.338Z,60.20
2023-01-09T19:18:35.742Z,60.30
2023-01-09T19:21:04.032Z,60.30
2023-01-09T19:23:33.333Z,60.70
2023-01-09T19:26:05.696Z,60.40
2023-01-09T19:28:33.606Z,60.40
2023-01-09T19:31:02.090Z,60.40
2023-01-09T19:33:30.057Z,60.50
2023-01-09T19:35:58.367Z,60.50
2023-01-09T19:38:26.851Z,60.50
2023-01-09T19:40:56.488Z,60.60
2023-01-09T19:43:27.439Z,60.70
2023-01-09T19:45:55.382Z,60.60
2023-01-09T19:48:23.500Z,60.50
2023-01-09T19:50:51.371Z,60.70
2023-01-09T19:53:19.773Z,60.60
2023-01-09T19:55:47.826Z,60.70
2023-01-09T19:58:17.456Z,60.70
2023-01-09T20:00:45.208Z,60.70
2023-01-09T20:03:12.922Z,60.60
2023-01-09T20:05:40.852Z,60.40
2023-01-09T20:08:09.776Z,60.60
2023-01-09T20:10:39.799Z,60.70
2023-01-09T20:13:09.888Z,60.50
2023-01-09T20:15:40.609Z,60.60
2023-01-09T20:18:08.888Z,60.60
2023-01-09T20:20:36.898Z,60.60
2023-01-09T20:23:04.862Z,60.50
2023-01-09T20:25:32.724Z,60.60
2023-01-09T20:28:00.962Z,60.60
2023-01-09T20:30:29.009Z,60.60
2023-01-09T20:33:00.154Z,60.50
2023-01-09T20:35:28.215Z,60.40
2023-01-09T20:37:56.110Z,60.40
2023-01-09T20:40:24.016Z,60.40
2023-01-09T20:42:51.852Z,60.50
2023-01-09T20:45:20.224Z,60.40
2023-01-09T20:47:48.150Z,60.50
2023-01-09T20:50:18.175Z,60.30
2023-01-09T20:52:45.921Z,60.30
2023-01-09T20:55:14.220Z,60.30
2023-01-09T20:57:42.120Z,60.20
2023-01-09T21:00:11.670Z,60.40
2023-01-09T21:02:39.515Z,60.40
2023-01-09T21:05:08.207Z,60.40
2023-01-09T21:07:37.884Z,60.40
2023-01-09T21:10:06.825Z,60.20
2023-01-09T21:12:38.419Z,60.20
2023-01-09T21:15:08.615Z,60.30
2023-01-09T21:17:37.077Z,60.40
2023-01-09T21:20:05.711Z,60.40
2023-01-09T21:22:33.825Z,60.20
2023-01-09T21:25:03.775Z,60.20
2023-01-09T21:27:32.812Z,60.20
2023-01-09T21:30:01.357Z,60.20
2023-01-09T21:32:32.767Z,60.00
2023-01-09T21:35:04.752Z,60.00
2023-01-09T21:37:33.388Z,59.90
2023-01-09T21:40:02.666Z,59.80
2023-01-09T21:42:48.165Z,59.70
2023-01-09T21:45:34.032Z,59.70
2023-01-09T21:48:03.531Z,59.70
2023-01-09T21:50:31.488Z,59.80
2023-01-09T21:52:59.961Z,59.80
2023-01-09T21:55:32.436Z,59.70
2023-01-09T21:58:01.192Z,59.80
2023-01-09T22:00:29.217Z,59.80
2023-01-09T22:02:57.485Z,59.80
2023-01-09T22:05:27.314Z,59.90
2023-01-09T22:07:56.071Z,59.90
2023-01-09T22:10:23.921Z,59.90
2023-01-09T22:13:11.673Z,59.80
2023-01-09T22:15:41.302Z,59.80
2023-01-09T22:18:09.311Z,60.00
2023-01-09T22:20:37.561Z,60.00
2023-01-09T22:23:06.147Z,60.00
2023-01-09T22:25:36.765Z,60.00
2023-01-09T22:28:06.874Z,60.10
2023-01-09T22:30:34.703Z,59.90
2023-01-09T22:33:03.144Z,60.00
2023-01-09T22:35:31.010Z,60.00
2023-01-09T22:37:59.211Z,60.00
2023-01-09T22:40:27.130Z,59.80
2023-01-09T22:42:55.171Z,59.90
2023-01-09T22:45:24.398Z,59.90
2023-01-09T22:47:52.285Z,59.80
2023-01-09T22:50:20.630Z,59.80
2023-01-09T22:52:49.362Z,60.00
2023-01-09T22:55:17.727Z,59.90
2023-01-09T22:57:45.703Z,60.10
2023-01-09T23:00:14.900Z,59.90
2023-01-09T23:02:44.343Z,59.80
2023-01-09T23:05:12.353Z,59.90
2023-01-09T23:07:40.806Z,60.00
2023-01-09T23:10:09.765Z,59.90
2023-01-09T23:12:38.296Z,59.90
2023-01-09T23:15:07.258Z,59.90
2023-01-09T23:17:35.712Z,59.90
2023-01-09T23:20:05.778Z,59.80
2023-01-09T23:22:33.872Z,60.00
2023-01-09T23:25:01.533Z,60.10
2023-01-09T23:27:29.615Z,59.90
2023-01-09T23:29:57.292Z,59.90
2023-01-09T23:32:24.991Z,60.10
2023-01-09T23:34:52.980Z,60.00
2023-01-09T23:37:22.010Z,60.20
2023-01-09T23:39:50.350Z,60.10
2023-01-09T23:42:35.579Z,60.00
2023-01-09T23:45:03.837Z,60.20
2023-01-09T23:47:31.741Z,60.10
2023-01-09T23:50:00.002Z,60.20
2023-01-09T23:52:32.169Z,60.10
2023-01-09T23:54:59.942Z,60.10
2023-01-09T23:57:27.695Z,60.20
2023-01-09T23:59:55.411Z,60.20
